sensor_id;sensor_type;location;lat;lon;timestamp;pressure;altitude;pressure_sealevel;temperature;humidity
34921;BME280;21128;50.016;20.002;2023-08-07T00:01:38;97592.42;;;14.01;100.00
34921;BME280;21128;50.016;20.002;2023-08-07T00:04:05;97587.14;;;14.01;100.00
34921;BME280;21128;50.016;20.002;2023-08-07T00:06:32;97591.41;;;14.02;100.00
34921;BME280;21128;50.016;20.002;2023-08-07T00:08:59;97593.23;;;14.01;100.00
34921;BME280;21128;50.016;20.002;2023-08-07T00:11:26;97588.16;;;14.00;100.00
34921;BME280;21128;50.016;20.002;2023-08-07T00:13:55;97589.78;;;14.01;100.00
34921;BME280;21128;50.016;20.002;2023-08-07T00:16:21;97587.14;;;14.01;100.00
34921;BME280;21128;50.016;20.002;2023-08-07T00:18:48;97579.22;;;14.01;100.00
34921;BME280;21128;50.016;20.002;2023-08-07T00:21:16;97570.48;;;14.00;100.00
34921;BME280;21128;50.016;20.002;2023-08-07T00:23:42;97571.50;;;13.99;100.00
34921;BME280;21128;50.016;20.002;2023-08-07T00:26:09;97570.48;;;14.00;100.00
34921;BME280;21128;50.016;20.002;2023-08-07T00:28:36;97573.94;;;14.01;100.00
34921;BME280;21128;50.016;20.002;2023-08-07T00:31:03;97573.12;;;14.00;100.00
34921;BME280;21128;50.016;20.002;2023-08-07T00:33:30;97570.48;;;14.00;100.00
34921;BME280;21128;50.016;20.002;2023-08-07T00:35:59;97571.30;;;14.01;100.00
34921;BME280;21128;50.016;20.002;2023-08-07T00:38:26;97566.22;;;13.99;100.00
34921;BME280;21128;50.016;20.002;2023-08-07T00:40:52;97563.97;;;13.96;100.00
34921;BME280;21128;50.016;20.002;2023-08-07T00:43:19;97565.97;;;13.94;100.00
34921;BME280;21128;50.016;20.002;2023-08-07T00:45:47;97562.72;;;13.92;100.00
34921;BME280;21128;50.016;20.002;2023-08-07T00:48:15;97565.36;;;13.92;100.00
34921;BME280;21128;50.016;20.002;2023-08-07T00:50:44;97567.19;;;13.92;100.00
34921;BME280;21128;50.016;20.002;2023-08-07T00:53:13;97573.28;;;13.92;100.00
34921;BME280;21128;50.016;20.002;2023-08-07T00:55:41;97577.75;;;13.92;100.00
34921;BME280;21128;50.016;20.002;2023-08-07T00:58:08;97568.00;;;13.92;100.00
34921;BME280;21128;50.016;20.002;2023-08-07T01:00:36;97568.81;;;13.93;100.00
34921;BME280;21128;50.016;20.002;2023-08-07T01:03:05;97559.06;;;13.93;100.00
34921;BME280;21128;50.016;20.002;2023-08-07T01:05:34;97557.23;;;13.94;100.00
34921;BME280;21128;50.016;20.002;2023-08-07T01:08:01;97557.88;;;13.96;100.00
34921;BME280;21128;50.016;20.002;2023-08-07T01:10:43;97556.87;;;13.97;100.00
34921;BME280;21128;50.016;20.002;2023-08-07T01:13:24;97561.14;;;13.98;100.00
34921;BME280;21128;50.016;20.002;2023-08-07T01:15:57;97567.03;;;14.00;100.00
34921;BME280;21128;50.016;20.002;2023-08-07T01:18:27;97559.11;;;14.00;100.00
34921;BME280;21128;50.016;20.002;2023-08-07T01:20:55;97562.16;;;14.03;100.00
34921;BME280;21128;50.016;20.002;2023-08-07T01:23:22;97558.70;;;14.03;100.00
34921;BME280;21128;50.016;20.002;2023-08-07T01:25:49;97564.63;;;14.05;100.00
34921;BME280;21128;50.016;20.002;2023-08-07T01:28:27;97556.71;;;14.05;100.00
34921;BME280;21128;50.016;20.002;2023-08-07T01:30:59;97563.63;;;14.06;100.00
34921;BME280;21128;50.016;20.002;2023-08-07T01:34:20;97568.09;;;14.05;100.00
34921;BME280;21128;50.016;20.002;2023-08-07T01:36:39;97568.91;;;14.06;100.00
34921;BME280;21128;50.016;20.002;2023-08-07T01:39:08;97565.25;;;14.07;100.00
34921;BME280;21128;50.016;20.002;2023-08-07T01:41:35;97567.89;;;14.07;100.00
34921;BME280;21128;50.016;20.002;2023-08-07T01:44:03;97571.34;;;14.07;100.00
34921;BME280;21128;50.016;20.002;2023-08-07T01:46:31;97573.17;;;14.07;100.00
34921;BME280;21128;50.016;20.002;2023-08-07T01:48:58;97575.81;;;14.07;100.00
34921;BME280;21128;50.016;20.002;2023-08-07T01:51:25;97567.89;;;14.07;100.00
34921;BME280;21128;50.016;20.002;2023-08-07T01:53:52;97566.88;;;14.08;100.00
34921;BME280;21128;50.016;20.002;2023-08-07T01:56:19;97566.67;;;14.09;100.00
34921;BME280;21128;50.016;20.002;2023-08-07T01:58:46;97562.20;;;14.10;100.00
34921;BME280;21128;50.016;20.002;2023-08-07T02:01:13;97562.00;;;14.12;100.00
34921;BME280;21128;50.016;20.002;2023-08-07T02:03:40;97574.23;;;14.13;100.00
34921;BME280;21128;50.016;20.002;2023-08-07T02:06:07;97583.58;;;14.15;100.00
34921;BME280;21128;50.016;20.002;2023-08-07T02:08:34;97573.83;;;14.16;100.00
34921;BME280;21128;50.016;20.002;2023-08-07T02:11:00;97573.83;;;14.16;100.00
34921;BME280;21128;50.016;20.002;2023-08-07T02:13:29;97575.45;;;14.17;100.00
34921;BME280;21128;50.016;20.002;2023-08-07T02:15:56;97567.53;;;14.17;100.00
34921;BME280;21128;50.016;20.002;2023-08-07T02:18:23;97582.56;;;14.16;100.00
34921;BME280;21128;50.016;20.002;2023-08-07T02:20:50;97588.86;;;14.15;100.00
34921;BME280;21128;50.016;20.002;2023-08-07T02:23:17;97589.06;;;14.14;100.00
34921;BME280;21128;50.016;20.002;2023-08-07T02:25:44;97590.08;;;14.13;100.00
34921;BME280;21128;50.016;20.002;2023-08-07T02:28:12;97590.45;;;14.09;100.00
34921;BME280;21128;50.016;20.002;2023-08-07T02:30:39;97590.84;;;14.06;100.00
34921;BME280;21128;50.016;20.002;2023-08-07T02:33:05;97595.52;;;14.04;100.00
34921;BME280;21128;50.016;20.002;2023-08-07T02:35:32;97585.93;;;14.03;100.00
34921;BME280;21128;50.016;20.002;2023-08-07T02:37:59;97589.78;;;14.01;100.00
34921;BME280;21128;50.016;20.002;2023-08-07T02:40:26;97590.80;;;14.00;100.00
34921;BME280;21128;50.016;20.002;2023-08-07T02:42:53;97590.19;;;13.98;100.00
34921;BME280;21128;50.016;20.002;2023-08-07T02:45:20;97591.00;;;13.98;100.00
34921;BME280;21128;50.016;20.002;2023-08-07T02:47:47;97581.45;;;13.97;100.00
34921;BME280;21128;50.016;20.002;2023-08-07T02:50:14;97584.09;;;13.97;100.00
34921;BME280;21128;50.016;20.002;2023-08-07T02:52:41;97578.61;;;13.99;100.00
34921;BME280;21128;50.016;20.002;2023-08-07T02:55:08;97579.63;;;13.98;100.00
34921;BME280;21128;50.016;20.002;2023-08-07T02:57:35;97579.82;;;13.96;100.00
34921;BME280;21128;50.016;20.002;2023-08-07T03:00:02;97579.38;;;13.93;100.00
34921;BME280;21128;50.016;20.002;2023-08-07T03:02:30;97577.75;;;13.92;100.00
34921;BME280;21128;50.016;20.002;2023-08-07T03:04:57;97579.77;;;13.90;100.00
34921;BME280;21128;50.016;20.002;2023-08-07T03:07:23;97584.24;;;13.89;100.00
34921;BME280;21128;50.016;20.002;2023-08-07T03:09:50;97585.42;;;13.87;100.00
34921;BME280;21128;50.016;20.002;2023-08-07T03:12:17;97591.72;;;13.86;100.00
34921;BME280;21128;50.016;20.002;2023-08-07T03:14:44;97592.73;;;13.85;100.00
34921;BME280;21128;50.016;20.002;2023-08-07T03:17:11;97598.01;;;13.85;100.00
34921;BME280;21128;50.016;20.002;2023-08-07T03:19:42;97600.84;;;13.83;100.00
34921;BME280;21128;50.016;20.002;2023-08-07T03:22:09;97603.48;;;13.83;100.00
34921;BME280;21128;50.016;20.002;2023-08-07T03:24:36;97598.20;;;13.83;100.00
34921;BME280;21128;50.016;20.002;2023-08-07T03:27:04;97612.22;;;13.84;100.00
34921;BME280;21128;50.016;20.002;2023-08-07T03:29:31;97619.13;;;13.85;100.00
34921;BME280;21128;50.016;20.002;2023-08-07T03:31:58;97617.11;;;13.87;100.00
34921;BME280;21128;50.016;20.002;2023-08-07T03:34:25;97614.47;;;13.87;100.00
34921;BME280;21128;50.016;20.002;2023-08-07T03:36:52;97615.11;;;13.89;100.00
34921;BME280;21128;50.016;20.002;2023-08-07T03:39:18;97610.64;;;13.89;100.00
34921;BME280;21128;50.016;20.002;2023-08-07T03:41:45;97617.55;;;13.90;100.00
34921;BME280;21128;50.016;20.002;2023-08-07T03:44:12;97606.80;;;13.92;100.00
34921;BME280;21128;50.016;20.002;2023-08-07T03:46:39;97616.95;;;13.95;100.00
34921;BME280;21128;50.016;20.002;2023-08-07T03:49:06;97615.98;;;13.96;100.00
34921;BME280;21128;50.016;20.002;2023-08-07T03:51:33;97616.59;;;13.98;100.00
34921;BME280;21128;50.016;20.002;2023-08-07T03:54:00;97616.39;;;13.99;100.00
34921;BME280;21128;50.016;20.002;2023-08-07T03:56:27;97620.47;;;14.02;100.00
34921;BME280;21128;50.016;20.002;2023-08-07T03:58:54;97624.94;;;14.01;100.00
34921;BME280;21128;50.016;20.002;2023-08-07T04:01:21;97633.67;;;14.02;100.00
34921;BME280;21128;50.016;20.002;2023-08-07T04:03:48;97630.02;;;14.03;100.00
34921;BME280;21128;50.016;20.002;2023-08-07T04:06:15;97634.28;;;14.04;100.00
34921;BME280;21128;50.016;20.002;2023-08-07T04:08:45;97630.83;;;14.03;100.00
34921;BME280;21128;50.016;20.002;2023-08-07T04:11:12;97613.80;;;14.06;100.00
34921;BME280;21128;50.016;20.002;2023-08-07T04:13:39;97620.52;;;14.08;100.00
34921;BME280;21128;50.016;20.002;2023-08-07T04:16:06;97622.95;;;14.10;100.00
34921;BME280;21128;50.016;20.002;2023-08-07T04:18:33;97630.68;;;14.12;100.00
34921;BME280;21128;50.016;20.002;2023-08-07T04:21:01;97630.31;;;14.15;100.00
34921;BME280;21128;50.016;20.002;2023-08-07T04:23:28;97622.60;;;14.20;100.00
34921;BME280;21128;50.016;20.002;2023-08-07T04:25:59;97625.69;;;14.23;100.00
34921;BME280;21128;50.016;20.002;2023-08-07T04:28:28;97636.30;;;14.30;100.00
34921;BME280;21128;50.016;20.002;2023-08-07T04:30:55;97636.31;;;14.36;100.00
34921;BME280;21128;50.016;20.002;2023-08-07T04:33:22;97640.02;;;14.42;100.00
34921;BME280;21128;50.016;20.002;2023-08-07T04:35:49;97637.44;;;14.49;100.00
34921;BME280;21128;50.016;20.002;2023-08-07T04:38:16;97635.66;;;14.56;100.00
34921;BME280;21128;50.016;20.002;2023-08-07T04:40:46;97638.94;;;14.64;100.00
34921;BME280;21128;50.016;20.002;2023-08-07T04:43:15;97639.96;;;14.70;100.00
34921;BME280;21128;50.016;20.002;2023-08-07T04:45:43;97642.23;;;14.73;100.00
34921;BME280;21128;50.016;20.002;2023-08-07T04:48:11;97643.25;;;14.79;100.00
34921;BME280;21128;50.016;20.002;2023-08-07T04:50:38;97641.66;;;14.84;100.00
34921;BME280;21128;50.016;20.002;2023-08-07T04:53:05;97644.53;;;14.89;100.00
34921;BME280;21128;50.016;20.002;2023-08-07T04:55:32;97646.77;;;14.92;100.00
34921;BME280;21128;50.016;20.002;2023-08-07T04:57:59;97652.47;;;14.96;100.00
34921;BME280;21128;50.016;20.002;2023-08-07T05:00:27;97647.81;;;14.98;100.00
34921;BME280;21128;50.016;20.002;2023-08-07T05:02:54;97651.27;;;14.99;100.00
34921;BME280;21128;50.016;20.002;2023-08-07T05:05:21;97649.03;;;15.02;100.00
34921;BME280;21128;50.016;20.002;2023-08-07T05:07:50;97639.70;;;15.06;100.00
34921;BME280;21128;50.016;20.002;2023-08-07T05:10:17;97643.36;;;15.12;100.00
34921;BME280;21128;50.016;20.002;2023-08-07T05:12:44;97647.63;;;15.13;100.00
34921;BME280;21128;50.016;20.002;2023-08-07T05:15:11;97653.56;;;15.15;100.00
34921;BME280;21128;50.016;20.002;2023-08-07T05:17:38;97649.69;;;15.17;100.00
34921;BME280;21128;50.016;20.002;2023-08-07T05:20:05;97653.15;;;15.18;100.00
34921;BME280;21128;50.016;20.002;2023-08-07T05:22:32;97648.67;;;15.18;100.00
34921;BME280;21128;50.016;20.002;2023-08-07T05:24:59;97645.82;;;15.20;100.00
34921;BME280;21128;50.016;20.002;2023-08-07T05:27:27;97645.82;;;15.20;100.00
34921;BME280;21128;50.016;20.002;2023-08-07T05:29:54;97659.46;;;15.17;100.00
34921;BME280;21128;50.016;20.002;2023-08-07T05:32:21;97664.14;;;15.15;100.00
34921;BME280;21128;50.016;20.002;2023-08-07T05:34:48;97661.70;;;15.13;100.00
34921;BME280;21128;50.016;20.002;2023-08-07T05:37:15;97663.33;;;15.14;100.00
34921;BME280;21128;50.016;20.002;2023-08-07T05:39:42;97665.36;;;15.19;100.00
34921;BME280;21128;50.016;20.002;2023-08-07T05:42:09;97662.94;;;15.24;100.00
34921;BME280;21128;50.016;20.002;2023-08-07T05:44:38;97663.55;;;15.26;100.00
34921;BME280;21128;50.016;20.002;2023-08-07T05:47:05;97662.94;;;15.24;100.00
34921;BME280;21128;50.016;20.002;2023-08-07T05:49:32;97672.92;;;15.22;100.00
34921;BME280;21128;50.016;20.002;2023-08-07T05:51:59;97681.47;;;15.24;100.00
34921;BME280;21128;50.016;20.002;2023-08-07T05:54:26;97678.82;;;15.24;100.00
34921;BME280;21128;50.016;20.002;2023-08-07T05:56:53;97678.82;;;15.24;100.00
34921;BME280;21128;50.016;20.002;2023-08-07T05:59:20;97672.09;;;15.28;100.00
34921;BME280;21128;50.016;20.002;2023-08-07T06:01:47;97684.53;;;15.34;100.00
34921;BME280;21128;50.016;20.002;2023-08-07T06:04:14;97680.88;;;15.35;100.00
34921;BME280;21128;50.016;20.002;2023-08-07T06:06:41;97691.45;;;15.35;100.00
34921;BME280;21128;50.016;20.002;2023-08-07T06:09:09;97686.16;;;15.35;100.00
34921;BME280;21128;50.016;20.002;2023-08-07T06:11:36;97697.36;;;15.37;100.00
34921;BME280;21128;50.016;20.002;2023-08-07T06:14:03;97693.69;;;15.38;100.00
34921;BME280;21128;50.016;20.002;2023-08-07T06:16:30;97699.63;;;15.40;100.00
34921;BME280;21128;50.016;20.002;2023-08-07T06:18:58;97706.14;;;15.44;100.00
34921;BME280;21128;50.016;20.002;2023-08-07T06:21:24;97706.55;;;15.41;100.00
34921;BME280;21128;50.016;20.002;2023-08-07T06:23:51;97705.30;;;15.37;100.00
34921;BME280;21128;50.016;20.002;2023-08-07T06:26:18;97715.51;;;15.40;100.00
34921;BME280;21128;50.016;20.002;2023-08-07T06:28:45;97715.09;;;15.43;100.00
34921;BME280;21128;50.016;20.002;2023-08-07T06:31:13;97716.52;;;15.46;100.00
34921;BME280;21128;50.016;20.002;2023-08-07T06:33:40;97725.50;;;15.52;100.00
34921;BME280;21128;50.016;20.002;2023-08-07T06:36:07;97709.03;;;15.56;100.00
34921;BME280;21128;50.016;20.002;2023-08-07T06:38:37;97709.69;;;15.65;100.00
34921;BME280;21128;50.016;20.002;2023-08-07T06:41:04;97711.31;;;15.79;100.00
34921;BME280;21128;50.016;20.002;2023-08-07T06:43:31;97705.81;;;15.87;100.00
34921;BME280;21128;50.016;20.002;2023-08-07T06:45:59;97719.28;;;15.92;100.00
34921;BME280;21128;50.016;20.002;2023-08-07T06:48:25;97717.84;;;15.96;100.00
34921;BME280;21128;50.016;20.002;2023-08-07T06:50:53;97718.66;;;16.03;100.00
34921;BME280;21128;50.016;20.002;2023-08-07T06:53:20;97714.38;;;16.02;100.00
34921;BME280;21128;50.016;20.002;2023-08-07T06:55:47;97712.97;;;16.07;100.00
34921;BME280;21128;50.016;20.002;2023-08-07T06:58:14;97707.86;;;16.12;100.00
34921;BME280;21128;50.016;20.002;2023-08-07T07:00:41;97719.27;;;16.19;100.00
34921;BME280;21128;50.016;20.002;2023-08-07T07:03:09;97718.67;;;16.23;100.00
34921;BME280;21128;50.016;20.002;2023-08-07T07:05:37;97725.78;;;16.29;100.00
34921;BME280;21128;50.016;20.002;2023-08-07T07:08:04;97728.44;;;16.36;100.00
34921;BME280;21128;50.016;20.002;2023-08-07T07:10:32;97721.51;;;16.35;100.00
34921;BME280;21128;50.016;20.002;2023-08-07T07:12:59;97731.50;;;16.40;100.00
34921;BME280;21128;50.016;20.002;2023-08-07T07:15:26;97733.52;;;16.51;100.00
34921;BME280;21128;50.016;20.002;2023-08-07T07:17:53;97730.02;;;16.64;100.00
34921;BME280;21128;50.016;20.002;2023-08-07T07:20:20;97720.02;;;16.72;100.00
34921;BME280;21128;50.016;20.002;2023-08-07T07:22:47;97720.83;;;16.79;100.00
34921;BME280;21128;50.016;20.002;2023-08-07T07:25:15;97730.83;;;16.84;100.00
34921;BME280;21128;50.016;20.002;2023-08-07T07:27:42;97735.47;;;16.95;100.00
34921;BME280;21128;50.016;20.002;2023-08-07T07:30:09;97740.13;;;17.06;100.00
34921;BME280;21128;50.016;20.002;2023-08-07T07:32:36;97737.05;;;17.16;100.00
34921;BME280;21128;50.016;20.002;2023-08-07T07:35:04;97738.67;;;17.17;100.00
34921;BME280;21128;50.016;20.002;2023-08-07T07:37:31;97746.42;;;17.19;100.00
34921;BME280;21128;50.016;20.002;2023-08-07T07:39:58;97744.43;;;17.07;100.00
34921;BME280;21128;50.016;20.002;2023-08-07T07:42:25;97748.53;;;16.97;100.00
34921;BME280;21128;50.016;20.002;2023-08-07T07:44:52;97749.98;;;16.93;100.00
34921;BME280;21128;50.016;20.002;2023-08-07T07:47:19;97746.69;;;16.97;100.00
34921;BME280;21128;50.016;20.002;2023-08-07T07:49:47;97747.90;;;17.08;100.00
34921;BME280;21128;50.016;20.002;2023-08-07T07:52:15;97758.30;;;17.09;100.00
34921;BME280;21128;50.016;20.002;2023-08-07T07:54:42;97755.86;;;17.08;100.00
34921;BME280;21128;50.016;20.002;2023-08-07T07:57:09;97752.16;;;17.15;100.00
34921;BME280;21128;50.016;20.002;2023-08-07T07:59:36;97757.05;;;17.12;100.00
34921;BME280;21128;50.016;20.002;2023-08-07T08:02:04;97764.44;;;17.03;100.00
34921;BME280;21128;50.016;20.002;2023-08-07T08:04:31;97766.50;;;16.95;100.00
34921;BME280;21128;50.016;20.002;2023-08-07T08:06:58;97766.52;;;16.88;100.00
34921;BME280;21128;50.016;20.002;2023-08-07T08:09:26;97777.77;;;16.77;100.00
34921;BME280;21128;50.016;20.002;2023-08-07T08:11:53;97788.60;;;16.69;100.00
34921;BME280;21128;50.016;20.002;2023-08-07T08:14:20;97780.83;;;16.67;100.00
34921;BME280;21128;50.016;20.002;2023-08-07T08:16:47;97777.98;;;16.69;100.00
34921;BME280;21128;50.016;20.002;2023-08-07T08:19:15;97775.52;;;16.67;100.00
34921;BME280;21128;50.016;20.002;2023-08-07T08:21:43;97780.44;;;16.70;100.00
34921;BME280;21128;50.016;20.002;2023-08-07T08:24:10;97792.66;;;16.78;100.00
34921;BME280;21128;50.016;20.002;2023-08-07T08:26:37;97783.08;;;16.83;100.00
34921;BME280;21128;50.016;20.002;2023-08-07T08:29:06;97788.12;;;16.98;100.00
34921;BME280;21128;50.016;20.002;2023-08-07T08:31:35;97777.45;;;17.18;100.00
34921;BME280;21128;50.016;20.002;2023-08-07T08:34:02;97780.86;;;17.32;100.00
34921;BME280;21128;50.016;20.002;2023-08-07T08:36:30;97779.52;;;17.61;100.00
34921;BME280;21128;50.016;20.002;2023-08-07T08:38:57;97779.09;;;18.02;100.00
34921;BME280;21128;50.016;20.002;2023-08-07T08:41:25;97776.50;;;18.20;100.00
34921;BME280;21128;50.016;20.002;2023-08-07T08:43:54;97770.05;;;18.35;100.00
34921;BME280;21128;50.016;20.002;2023-08-07T08:46:24;97785.56;;;18.38;100.00
34921;BME280;21128;50.016;20.002;2023-08-07T08:48:57;97779.66;;;18.36;100.00
34921;BME280;21128;50.016;20.002;2023-08-07T08:51:25;97776.41;;;18.34;100.00
34921;BME280;21128;50.016;20.002;2023-08-07T08:53:53;97784.70;;;18.44;100.00
34921;BME280;21128;50.016;20.002;2023-08-07T08:56:23;97781.91;;;18.57;100.00
34921;BME280;21128;50.016;20.002;2023-08-07T08:58:50;97779.34;;;18.75;100.00
34921;BME280;21128;50.016;20.002;2023-08-07T09:01:18;97778.88;;;18.78;100.00
34921;BME280;21128;50.016;20.002;2023-08-07T09:03:45;97786.20;;;18.58;98.90
34921;BME280;21128;50.016;20.002;2023-08-07T09:06:13;97794.58;;;18.37;99.52
34921;BME280;21128;50.016;20.002;2023-08-07T09:08:43;97793.66;;;18.24;99.45
34921;BME280;21128;50.016;20.002;2023-08-07T09:11:10;97787.45;;;18.31;100.00
34921;BME280;21128;50.016;20.002;2023-08-07T09:13:40;97788.22;;;18.38;100.00
34921;BME280;21128;50.016;20.002;2023-08-07T09:16:08;97794.41;;;18.32;99.02
34921;BME280;21128;50.016;20.002;2023-08-07T09:18:36;97792.89;;;18.17;98.44
34921;BME280;21128;50.016;20.002;2023-08-07T09:21:04;97798.63;;;18.14;99.36
34921;BME280;21128;50.016;20.002;2023-08-07T09:23:31;97789.08;;;18.32;100.00
34921;BME280;21128;50.016;20.002;2023-08-07T09:25:59;97788.44;;;18.61;100.00
34921;BME280;21128;50.016;20.002;2023-08-07T09:28:28;97802.75;;;18.67;96.84
34921;BME280;21128;50.016;20.002;2023-08-07T09:30:57;97795.78;;;18.66;94.40
34921;BME280;21128;50.016;20.002;2023-08-07T09:33:25;97807.23;;;18.66;96.71
34921;BME280;21128;50.016;20.002;2023-08-07T09:35:57;97798.63;;;18.89;96.37
34921;BME280;21128;50.016;20.002;2023-08-07T09:38:28;97801.34;;;18.82;94.13
34921;BME280;21128;50.016;20.002;2023-08-07T09:41:00;97806.02;;;18.62;93.33
34921;BME280;21128;50.016;20.002;2023-08-07T09:43:28;97800.28;;;18.65;95.62
34921;BME280;21128;50.016;20.002;2023-08-07T09:46:05;97799.72;;;18.81;95.93
34921;BME280;21128;50.016;20.002;2023-08-07T09:48:39;97800.78;;;18.99;96.48
34921;BME280;21128;50.016;20.002;2023-08-07T09:51:07;97797.23;;;19.23;94.57
34921;BME280;21128;50.016;20.002;2023-08-07T09:53:34;97794.35;;;19.43;95.92
34921;BME280;21128;50.016;20.002;2023-08-07T09:56:02;97804.27;;;19.36;93.56
34921;BME280;21128;50.016;20.002;2023-08-07T09:58:29;97802.26;;;19.31;93.07
34921;BME280;21128;50.016;20.002;2023-08-07T10:01:00;97804.34;;;19.11;90.76
34921;BME280;21128;50.016;20.002;2023-08-07T10:03:27;97802.43;;;19.18;93.75
34921;BME280;21128;50.016;20.002;2023-08-07T10:05:55;97816.31;;;19.38;94.33
34921;BME280;21128;50.016;20.002;2023-08-07T10:08:23;97811.81;;;19.21;92.32
34921;BME280;21128;50.016;20.002;2023-08-07T10:10:51;97815.13;;;18.98;92.56
34921;BME280;21128;50.016;20.002;2023-08-07T10:13:19;97808.69;;;18.87;93.99
34921;BME280;21128;50.016;20.002;2023-08-07T10:15:47;97816.17;;;19.15;95.40
34921;BME280;21128;50.016;20.002;2023-08-07T10:18:14;97825.65;;;19.29;93.60
34921;BME280;21128;50.016;20.002;2023-08-07T10:20:41;97819.94;;;19.07;93.64
34921;BME280;21128;50.016;20.002;2023-08-07T10:23:11;97817.03;;;18.91;94.05
34921;BME280;21128;50.016;20.002;2023-08-07T10:25:41;97814.52;;;18.77;94.87
34921;BME280;21128;50.016;20.002;2023-08-07T10:28:13;97820.36;;;18.61;94.88
34921;BME280;21128;50.016;20.002;2023-08-07T10:30:42;97816.77;;;18.49;94.81
34921;BME280;21128;50.016;20.002;2023-08-07T10:33:10;97816.13;;;18.53;95.41
34921;BME280;21128;50.016;20.002;2023-08-07T10:35:44;97819.91;;;18.64;94.44
34921;BME280;21128;50.016;20.002;2023-08-07T10:38:13;97813.76;;;18.70;95.38
34921;BME280;21128;50.016;20.002;2023-08-07T10:40:59;97810.59;;;18.80;95.30
34921;BME280;21128;50.016;20.002;2023-08-07T10:43:30;97816.08;;;18.85;95.51
34921;BME280;21128;50.016;20.002;2023-08-07T10:46:12;97814.52;;;18.77;95.68
34921;BME280;21128;50.016;20.002;2023-08-07T10:48:46;97824.04;;;18.67;95.95
34921;BME280;21128;50.016;20.002;2023-08-07T10:51:17;97819.89;;;18.71;96.90
34921;BME280;21128;50.016;20.002;2023-08-07T10:53:47;97817.48;;;18.88;97.06
34921;BME280;21128;50.016;20.002;2023-08-07T10:56:29;97817.20;;;19.32;98.29
34921;BME280;21128;50.016;20.002;2023-08-07T10:58:57;97813.05;;;19.55;95.39
34921;BME280;21128;50.016;20.002;2023-08-07T11:03:55;97823.86;;;19.23;94.66
34921;BME280;21128;50.016;20.002;2023-08-07T11:06:28;97819.13;;;19.07;94.75
34921;BME280;21128;50.016;20.002;2023-08-07T11:08:59;97820.26;;;19.18;96.09
34921;BME280;21128;50.016;20.002;2023-08-07T11:11:27;97824.15;;;18.97;93.93
34921;BME280;21128;50.016;20.002;2023-08-07T11:13:54;97828.52;;;18.66;94.15
34921;BME280;21128;50.016;20.002;2023-08-07T11:16:21;97843.22;;;18.44;95.28
34921;BME280;21128;50.016;20.002;2023-08-07T11:18:49;97844.19;;;18.24;95.77
34921;BME280;21128;50.016;20.002;2023-08-07T11:21:16;97856.80;;;17.97;95.94
34921;BME280;21128;50.016;20.002;2023-08-07T11:23:43;97842.59;;;17.79;96.59
34921;BME280;21128;50.016;20.002;2023-08-07T11:26:13;97848.34;;;17.76;97.07
34921;BME280;21128;50.016;20.002;2023-08-07T11:28:40;97846.26;;;17.84;98.39
34921;BME280;21128;50.016;20.002;2023-08-07T11:31:07;97849.64;;;17.98;98.99
34921;BME280;21128;50.016;20.002;2023-08-07T11:33:35;97855.11;;;18.10;98.69
34921;BME280;21128;50.016;20.002;2023-08-07T11:36:03;97859.64;;;18.03;98.52
34921;BME280;21128;50.016;20.002;2023-08-07T11:38:36;97852.73;;;17.95;98.52
34921;BME280;21128;50.016;20.002;2023-08-07T11:41:05;97854.55;;;18.01;99.60
34921;BME280;21128;50.016;20.002;2023-08-07T11:43:34;97850.05;;;18.33;99.90
34921;BME280;21128;50.016;20.002;2023-08-07T11:46:06;97846.84;;;18.49;99.44
34921;BME280;21128;50.016;20.002;2023-08-07T11:48:37;97858.91;;;18.52;98.02
34921;BME280;21128;50.016;20.002;2023-08-07T11:51:06;97870.67;;;18.38;98.14
34921;BME280;21128;50.016;20.002;2023-08-07T11:53:37;97878.56;;;18.19;97.81
34921;BME280;21128;50.016;20.002;2023-08-07T11:56:10;97876.06;;;17.93;97.83
34921;BME280;21128;50.016;20.002;2023-08-07T11:58:41;97870.98;;;17.85;98.76
34921;BME280;21128;50.016;20.002;2023-08-07T12:01:11;97889.17;;;17.81;99.18
34921;BME280;21128;50.016;20.002;2023-08-07T12:03:42;97891.88;;;17.68;100.00
34921;BME280;21128;50.016;20.002;2023-08-07T12:06:09;97899.86;;;17.61;100.00
34921;BME280;21128;50.016;20.002;2023-08-07T12:08:40;97887.23;;;17.50;100.00
34921;BME280;21128;50.016;20.002;2023-08-07T12:11:09;97889.49;;;17.40;100.00
34921;BME280;21128;50.016;20.002;2023-08-07T12:13:41;97893.98;;;17.46;100.00
34921;BME280;21128;50.016;20.002;2023-08-07T12:16:09;97895.20;;;17.50;100.00
34921;BME280;21128;50.016;20.002;2023-08-07T12:18:37;97897.87;;;17.43;100.00
34921;BME280;21128;50.016;20.002;2023-08-07T12:21:07;97901.14;;;17.39;100.00
34921;BME280;21128;50.016;20.002;2023-08-07T12:23:36;97905.42;;;17.40;100.00
34921;BME280;21128;50.016;20.002;2023-08-07T12:26:05;97899.34;;;17.33;100.00
34921;BME280;21128;50.016;20.002;2023-08-07T12:28:37;97910.18;;;17.25;100.00
34921;BME280;21128;50.016;20.002;2023-08-07T12:31:04;97911.42;;;17.15;100.00
34921;BME280;21128;50.016;20.002;2023-08-07T12:33:31;97920.80;;;17.11;100.00
34921;BME280;21128;50.016;20.002;2023-08-07T12:35:59;97929.78;;;16.97;100.00
34921;BME280;21128;50.016;20.002;2023-08-07T12:38:26;97936.29;;;16.68;100.00
34921;BME280;21128;50.016;20.002;2023-08-07T12:40:54;97938.68;;;16.37;100.00
34921;BME280;21128;50.016;20.002;2023-08-07T12:43:21;97945.75;;;16.10;100.00
34921;BME280;21128;50.016;20.002;2023-08-07T12:45:48;97954.41;;;15.84;100.00
34921;BME280;21128;50.016;20.002;2023-08-07T12:48:15;97955.02;;;15.51;100.00
34921;BME280;21128;50.016;20.002;2023-08-07T12:50:42;97956.69;;;15.24;100.00